Blisland, United Kingdom
Current Conditions -  °F | °C
As of 12:20 PM on Tuesday 27 Jan 2015 (Local Time) from EGHQ Reporting Station
Rain Showers Rain Showers  
Wind Chill: 40°   Ceiling: 2700
Heat Index: 46°   Visibility: 6mi
Dew Point: 41°   Wind: 14mph
Humidity: 81%   Direction: 270°W
Pressure: 30.42"   Gusts: NA
Location:  50.49°N, 4.76°W
Report Text: EGHQ 271220Z 27012KT 9999 VCSH FEW015 BKN027 08/05 Q1030
Loading
Personal Weather Stations






























Interactive Weather Map New forecast layout! Learn more

10-Day Weather Forecast

Advertisements
Track Severe Weather on mobile